Time;durP1;ratioP1;P1;durP2;ratioP2;P2;SDS_P1;SDS_P2;PMS_P1;PMS_P2;Temp;Humidity;BMP_temperature;BMP_pressure;BME280_temperature;BME280_humidity;BME280_pressure;Samples;Min_cycle;Max_cycle;Signal;HPM_P1;HPM_P2
2023/05/13 00:02:25;;;;;;;1.43;1.10;;;11.00;99.90;;;;;;5073344;28;20493;-79
2023/05/13 00:04:52;;;;;;;1.40;1.00;;;11.00;99.90;;;;;;5073759;28;20458;-79
2023/05/13 00:07:19;;;;;;;1.47;1.00;;;11.00;99.90;;;;;;5073770;28;20453;-79
2023/05/13 00:09:47;;;;;;;1.30;1.00;;;10.90;99.90;;;;;;5073924;28;20441;-79
2023/05/13 00:12:14;;;;;;;2.20;1.13;;;10.90;99.90;;;;;;5073318;28;20941;-79
2023/05/13 00:14:40;;;;;;;2.00;1.00;;;10.90;99.90;;;;;;5073682;28;20453;-79
2023/05/13 00:17:07;;;;;;;1.03;1.00;;;10.90;99.90;;;;;;5073642;28;20453;-79
2023/05/13 00:19:34;;;;;;;2.10;1.33;;;10.90;99.90;;;;;;5073566;28;20502;-79
2023/05/13 00:22:00;;;;;;;0.97;0.90;;;10.90;99.90;;;;;;5073483;28;20499;-79
2023/05/13 00:24:27;;;;;;;2.07;1.43;;;10.90;99.90;;;;;;5073428;28;20472;-79
2023/05/13 00:26:55;;;;;;;1.23;1.03;;;10.90;99.90;;;;;;5074165;28;20456;-79
2023/05/13 00:29:22;;;;;;;0.80;0.80;;;10.90;99.90;;;;;;5073455;28;20460;-79
2023/05/13 00:31:48;;;;;;;1.43;1.03;;;10.90;99.90;;;;;;5073449;28;20449;-79
2023/05/13 00:34:15;;;;;;;1.57;1.07;;;11.00;99.90;;;;;;5073345;28;20468;-79
2023/05/13 00:36:42;;;;;;;2.97;1.20;;;11.00;99.90;;;;;;5073666;28;20454;-79
2023/05/13 00:39:09;;;;;;;1.70;1.17;;;11.00;99.90;;;;;;5073368;28;20472;-79
2023/05/13 00:41:36;;;;;;;3.43;1.13;;;11.10;99.90;;;;;;5073499;28;20446;-79
2023/05/13 00:44:05;;;;;;;1.20;0.60;;;11.10;99.90;;;;;;5073146;28;20492;-79
2023/05/13 00:46:32;;;;;;;2.30;1.27;;;11.10;99.90;;;;;;5073457;28;20548;-79
2023/05/13 00:48:59;;;;;;;2.50;1.23;;;11.20;99.90;;;;;;5072935;28;20537;-79
2023/05/13 00:51:26;;;;;;;1.70;1.03;;;11.20;99.90;;;;;;5073231;28;20862;-79
2023/05/13 00:53:53;;;;;;;0.77;0.63;;;11.20;99.90;;;;;;5073149;28;20475;-79
2023/05/13 00:56:21;;;;;;;3.03;1.23;;;11.20;99.90;;;;;;5073203;28;20499;-79
2023/05/13 00:58:48;;;;;;;1.53;1.43;;;11.30;99.90;;;;;;5073201;28;20528;-79
2023/05/13 01:01:22;;;;;;;1.83;1.67;;;11.30;99.90;;;;;;5072943;28;20453;-80
2023/05/13 01:03:57;;;;;;;1.03;0.80;;;11.30;99.90;;;;;;5073027;28;20497;-79
2023/05/13 01:06:31;;;;;;;0.70;0.70;;;11.20;99.90;;;;;;5074238;28;20413;-79
2023/05/13 01:09:05;;;;;;;0.97;0.90;;;11.20;99.90;;;;;;5077345;28;20444;-79
2023/05/13 01:11:37;;;;;;;1.23;1.07;;;11.30;99.90;;;;;;5077197;28;20837;-79
2023/05/13 01:14:12;;;;;;;1.27;0.80;;;11.20;99.90;;;;;;5077163;28;20500;-79
2023/05/13 01:16:45;;;;;;;0.90;0.80;;;11.30;99.90;;;;;;5077063;28;20433;-79
2023/05/13 01:19:26;;;;;;;1.10;1.00;;;11.30;99.90;;;;;;5076994;28;20429;-79
2023/05/13 01:21:54;;;;;;;1.13;0.90;;;11.30;99.90;;;;;;5076948;28;20487;-79
2023/05/13 01:24:21;;;;;;;1.20;0.90;;;11.30;99.90;;;;;;5076674;28;20489;-79
2023/05/13 01:26:48;;;;;;;1.20;0.70;;;11.20;99.90;;;;;;5076823;28;20453;-79
2023/05/13 01:29:15;;;;;;;11.70;0.90;;;11.30;99.90;;;;;;5076415;28;20515;-79
2023/05/13 01:31:42;;;;;;;1.43;0.97;;;11.20;99.90;;;;;;5076670;28;20450;-79
2023/05/13 01:34:11;;;;;;;1.67;1.07;;;11.20;99.90;;;;;;5076250;28;20497;-79
2023/05/13 01:36:38;;;;;;;1.00;1.00;;;11.30;99.90;;;;;;5076667;28;20449;-79
2023/05/13 01:39:08;;;;;;;1.83;1.40;;;11.30;99.90;;;;;;5076415;28;20455;-79
2023/05/13 01:41:35;;;;;;;0.73;0.73;;;11.30;99.90;;;;;;5076476;28;20457;-79
2023/05/13 01:44:01;;;;;;;3.30;0.87;;;11.40;99.90;;;;;;5076470;28;20492;-79
2023/05/13 01:46:29;;;;;;;1.80;1.40;;;11.40;99.90;;;;;;5076423;28;20460;-79
2023/05/13 01:48:55;;;;;;;1.60;0.97;;;11.40;99.90;;;;;;5076344;28;20457;-79
2023/05/13 01:51:22;;;;;;;0.80;0.67;;;11.30;99.90;;;;;;5076342;28;20440;-79
2023/05/13 01:53:49;;;;;;;2.37;1.13;;;11.30;99.90;;;;;;5075953;28;20461;-79
2023/05/13 01:56:17;;;;;;;2.40;0.70;;;11.30;99.90;;;;;;5076218;28;20449;-79
2023/05/13 01:58:43;;;;;;;1.43;0.90;;;11.20;99.90;;;;;;5076187;28;20445;-79
2023/05/13 02:01:10;;;;;;;0.90;0.90;;;11.20;99.90;;;;;;5075910;28;20445;-79
2023/05/13 02:03:37;;;;;;;2.33;1.17;;;11.30;99.90;;;;;;5076014;28;20488;-79
2023/05/13 02:06:04;;;;;;;1.50;1.20;;;11.20;99.90;;;;;;5076067;28;20506;-79
2023/05/13 02:08:31;;;;;;;1.37;1.10;;;11.20;99.90;;;;;;5075725;28;20441;-79
2023/05/13 02:10:58;;;;;;;1.07;0.77;;;11.10;99.90;;;;;;5075996;28;20477;-79
2023/05/13 02:13:26;;;;;;;0.83;0.83;;;11.10;99.90;;;;;;5075606;28;20485;-79
2023/05/13 02:15:53;;;;;;;1.57;1.37;;;11.00;99.90;;;;;;5076133;28;20460;-79
2023/05/13 02:18:20;;;;;;;1.63;1.03;;;11.00;99.90;;;;;;5075559;28;20502;-79
2023/05/13 02:20:47;;;;;;;2.17;1.03;;;11.00;99.90;;;;;;5075775;28;20443;-79
2023/05/13 02:23:14;;;;;;;0.90;0.90;;;11.00;99.90;;;;;;5075901;28;20539;-79
2023/05/13 02:25:41;;;;;;;1.37;1.27;;;11.00;99.90;;;;;;5075714;28;20566;-79
2023/05/13 02:28:08;;;;;;;1.30;0.90;;;11.00;99.90;;;;;;5075745;28;20477;-79
2023/05/13 02:30:36;;;;;;;1.63;1.00;;;10.90;99.90;;;;;;5075639;28;20454;-79
2023/05/13 02:33:03;;;;;;;1.50;1.40;;;10.90;99.90;;;;;;5075279;28;20473;-79
2023/05/13 02:35:29;;;;;;;1.03;0.77;;;10.90;99.90;;;;;;5075534;28;20483;-79
2023/05/13 02:37:56;;;;;;;1.90;1.13;;;10.80;99.90;;;;;;5075255;28;20442;-79
2023/05/13 02:40:23;;;;;;;2.20;1.10;;;10.80;99.90;;;;;;5075449;28;20445;-79
2023/05/13 02:42:50;;;;;;;0.97;0.87;;;10.70;99.90;;;;;;5075362;28;20825;-79
2023/05/13 02:45:17;;;;;;;1.90;1.30;;;10.70;99.90;;;;;;5074986;28;20882;-79
2023/05/13 02:47:45;;;;;;;2.27;1.30;;;10.70;99.90;;;;;;5076001;28;20453;-79
2023/05/13 02:50:12;;;;;;;0.80;0.80;;;10.70;99.90;;;;;;5075259;28;20503;-79
2023/05/13 02:52:39;;;;;;;2.10;1.20;;;10.70;99.90;;;;;;5075112;28;20476;-79
2023/05/13 02:55:07;;;;;;;1.07;0.93;;;10.70;99.90;;;;;;5075133;28;20456;-79
2023/05/13 02:57:34;;;;;;;0.77;0.73;;;10.80;99.90;;;;;;5075123;28;20450;-79
2023/05/13 03:00:01;;;;;;;1.87;1.43;;;10.70;99.90;;;;;;5075455;28;20464;-79
2023/05/13 03:02:28;;;;;;;1.00;0.90;;;10.70;99.90;;;;;;5075331;28;20481;-79
2023/05/13 03:04:56;;;;;;;1.87;1.13;;;10.70;99.90;;;;;;5074868;28;20512;-79
2023/05/13 03:07:23;;;;;;;1.77;1.33;;;10.80;99.90;;;;;;5074940;28;20544;-79
2023/05/13 03:09:50;;;;;;;1.20;1.10;;;10.80;99.90;;;;;;5074762;28;20545;-79
2023/05/13 03:12:16;;;;;;;1.53;1.17;;;10.80;99.90;;;;;;5074770;28;20456;-79
2023/05/13 03:14:43;;;;;;;2.60;1.17;;;10.80;99.90;;;;;;5074758;28;20441;-79
2023/05/13 03:17:10;;;;;;;1.67;0.97;;;10.80;99.90;;;;;;5074633;28;20462;-79
2023/05/13 03:19:38;;;;;;;2.33;1.37;;;10.70;99.90;;;;;;5075037;28;20507;-79
2023/05/13 03:22:06;;;;;;;1.27;0.83;;;10.70;99.90;;;;;;5074554;28;20450;-79
2023/05/13 03:24:33;;;;;;;3.23;1.27;;;10.80;99.90;;;;;;5074506;28;20858;-79
2023/05/13 03:27:00;;;;;;;1.50;1.40;;;10.70;99.90;;;;;;5074258;28;20936;-79
2023/05/13 03:29:26;;;;;;;1.23;1.13;;;10.80;99.90;;;;;;5073548;28;20511;-79
2023/05/13 03:31:54;;;;;;;1.53;0.67;;;10.70;99.90;;;;;;5074119;28;20479;-80
2023/05/13 03:34:20;;;;;;;1.07;0.90;;;10.70;99.90;;;;;;5074313;28;20466;-79
2023/05/13 03:36:47;;;;;;;0.90;0.70;;;10.70;99.90;;;;;;5074329;28;20937;-79
2023/05/13 03:39:16;;;;;;;2.10;1.27;;;10.60;99.90;;;;;;5074252;28;20449;-79
2023/05/13 03:41:44;;;;;;;1.20;1.10;;;10.60;99.90;;;;;;5074204;28;20485;-79
2023/05/13 03:44:11;;;;;;;0.73;0.70;;;10.60;99.90;;;;;;5074090;28;20480;-80
2023/05/13 03:46:37;;;;;;;1.07;0.60;;;10.60;99.90;;;;;;5074315;28;20461;-80
2023/05/13 03:49:04;;;;;;;0.80;0.80;;;10.50;99.90;;;;;;5074046;28;20446;-79
2023/05/13 03:51:33;;;;;;;1.17;0.83;;;10.50;99.90;;;;;;5074300;28;20453;-79
2023/05/13 03:53:59;;;;;;;0.97;0.80;;;10.60;99.90;;;;;;5073650;28;20508;-79
2023/05/13 03:56:27;;;;;;;1.10;0.70;;;10.60;99.90;;;;;;5073651;28;20449;-79
2023/05/13 03:58:54;;;;;;;1.07;0.70;;;10.50;99.90;;;;;;5073894;28;20457;-79
2023/05/13 04:01:22;;;;;;;1.27;1.00;;;10.50;99.90;;;;;;5073370;28;20953;-79
2023/05/13 04:03:49;;;;;;;1.23;0.90;;;10.50;99.90;;;;;;5073698;28;20489;-79
2023/05/13 04:06:16;;;;;;;0.50;0.50;;;10.50;99.90;;;;;;5073423;28;20458;-79
2023/05/13 04:08:43;;;;;;;0.80;0.80;;;10.50;99.90;;;;;;5073778;28;20456;-79
2023/05/13 04:11:09;;;;;;;1.40;1.00;;;10.50;99.90;;;;;;5073641;28;20532;-79
2023/05/13 04:13:38;;;;;;;1.20;1.17;;;10.50;99.90;;;;;;5073582;28;20561;-79
2023/05/13 04:16:04;;;;;;;1.30;0.70;;;10.50;99.90;;;;;;5073694;28;20456;-79
2023/05/13 04:18:33;;;;;;;0.90;0.80;;;10.50;99.90;;;;;;5073642;28;20454;-79
2023/05/13 04:21:00;;;;;;;1.90;0.90;;;10.70;99.90;;;;;;5073566;28;20472;-79
2023/05/13 04:23:28;;;;;;;1.23;1.17;;;10.60;99.90;;;;;;5073460;28;20461;-80
2023/05/13 04:25:55;;;;;;;1.00;0.87;;;10.60;99.90;;;;;;5073763;28;20444;-80
2023/05/13 04:28:22;;;;;;;2.80;1.20;;;10.60;99.90;;;;;;5073516;28;20445;-79
2023/05/13 04:30:50;;;;;;;1.40;1.23;;;10.60;99.90;;;;;;5073893;28;20455;-79
2023/05/13 04:33:16;;;;;;;0.70;0.70;;;10.60;99.90;;;;;;5073379;28;20474;-79
2023/05/13 04:35:43;;;;;;;0.90;0.90;;;10.60;99.90;;;;;;5073365;28;20449;-79
2023/05/13 04:38:10;;;;;;;1.17;0.80;;;10.60;99.90;;;;;;5073080;28;20941;-79
2023/05/13 04:40:36;;;;;;;0.93;0.77;;;10.50;99.90;;;;;;5073298;28;20445;-80
2023/05/13 04:43:03;;;;;;;2.10;0.70;;;10.60;99.90;;;;;;5073291;28;20466;-80
2023/05/13 04:45:30;;;;;;;1.53;1.20;;;10.60;99.90;;;;;;5073240;28;20481;-79
2023/05/13 04:47:58;;;;;;;0.90;0.90;;;10.60;99.90;;;;;;5073275;28;20456;-79
2023/05/13 04:50:25;;;;;;;1.23;0.70;;;10.60;99.90;;;;;;5073259;28;20461;-80
2023/05/13 04:52:53;;;;;;;1.63;0.73;;;10.60;99.90;;;;;;5073136;28;20531;-79
2023/05/13 04:55:20;;;;;;;3.53;0.90;;;10.50;99.90;;;;;;5073158;28;20465;-80
2023/05/13 04:57:47;;;;;;;1.53;1.00;;;10.50;99.90;;;;;;5073168;28;20449;-79
2023/05/13 05:00:14;;;;;;;2.07;1.60;;;10.50;99.90;;;;;;5073198;28;20453;-79
2023/05/13 05:02:41;;;;;;;0.87;0.63;;;10.50;99.90;;;;;;5072700;28;20489;-79
2023/05/13 05:05:10;;;;;;;1.43;0.90;;;10.50;99.90;;;;;;5073086;28;20489;-80
2023/05/13 05:07:39;;;;;;;1.33;1.00;;;10.50;99.90;;;;;;5072779;28;20941;-80
2023/05/13 05:10:06;;;;;;;1.10;0.80;;;10.50;99.90;;;;;;5073078;28;20481;-79
2023/05/13 05:12:33;;;;;;;1.20;1.10;;;10.50;99.90;;;;;;5073238;28;20469;-79
2023/05/13 05:15:00;;;;;;;1.90;0.80;;;10.50;99.90;;;;;;5073295;28;20839;-79
2023/05/13 05:17:31;;;;;;;1.43;0.80;;;10.50;99.90;;;;;;5073015;28;20457;-79
2023/05/13 05:19:58;;;;;;;1.30;1.20;;;10.50;99.90;;;;;;5072701;28;20993;-79
2023/05/13 05:22:26;;;;;;;1.30;1.20;;;10.50;99.90;;;;;;5072908;28;20466;-79
2023/05/13 05:24:52;;;;;;;1.30;1.07;;;10.50;99.90;;;;;;5072905;28;20585;-79
2023/05/13 05:27:19;;;;;;;1.47;0.93;;;10.50;99.90;;;;;;5072939;28;20503;-80
2023/05/13 05:29:46;;;;;;;1.93;1.00;;;10.50;99.90;;;;;;5072917;28;20445;-81
2023/05/13 05:32:12;;;;;;;1.03;0.83;;;10.50;99.90;;;;;;5072841;28;20449;-81
2023/05/13 05:34:39;;;;;;;2.70;0.70;;;10.50;99.90;;;;;;5072874;28;20449;-82
2023/05/13 05:37:06;;;;;;;4.40;1.20;;;10.60;99.90;;;;;;5073122;28;20519;-82
2023/05/13 05:39:34;;;;;;;1.30;1.00;;;10.60;99.90;;;;;;5072480;28;20828;-81
2023/05/13 05:42:01;;;;;;;2.33;0.80;;;10.60;99.90;;;;;;5072689;28;20434;-82
2023/05/13 05:44:28;;;;;;;0.77;0.77;;;10.60;99.90;;;;;;5072364;28;20861;-82
2023/05/13 05:46:54;;;;;;;2.50;0.90;;;10.70;99.90;;;;;;5072774;28;20457;-82
2023/05/13 05:49:21;;;;;;;1.37;0.90;;;10.70;99.90;;;;;;5072786;28;20457;-82
2023/05/13 05:51:48;;;;;;;3.30;1.03;;;10.70;99.90;;;;;;5073046;28;20454;-82
2023/05/13 05:54:14;;;;;;;0.80;0.80;;;10.70;99.90;;;;;;5076270;28;20476;-82
2023/05/13 05:56:42;;;;;;;1.27;1.07;;;10.60;99.90;;;;;;5076286;28;20442;-82
2023/05/13 05:59:09;;;;;;;1.80;1.23;;;10.60;99.90;;;;;;5076240;28;20450;-82
2023/05/13 06:01:36;;;;;;;1.13;1.03;;;10.60;99.90;;;;;;5076103;28;20489;-82
2023/05/13 06:04:03;;;;;;;0.90;0.90;;;10.70;99.90;;;;;;5076044;28;20469;-82
2023/05/13 06:06:29;;;;;;;0.77;0.77;;;10.70;99.90;;;;;;5076114;28;20483;-82
2023/05/13 06:08:56;;;;;;;0.80;0.77;;;10.80;99.90;;;;;;5075744;28;20453;-82
2023/05/13 06:11:23;;;;;;;0.93;0.80;;;10.80;99.90;;;;;;5076066;28;20797;-82
2023/05/13 06:13:51;;;;;;;0.80;0.80;;;10.80;99.90;;;;;;5075902;28;20469;-82
2023/05/13 06:16:17;;;;;;;1.60;1.33;;;10.90;99.90;;;;;;5075959;28;20813;-82
2023/05/13 06:18:44;;;;;;;1.03;0.93;;;10.90;99.90;;;;;;5075872;28;20479;-82
2023/05/13 06:21:11;;;;;;;1.17;1.00;;;10.90;99.90;;;;;;5076138;28;20441;-82
2023/05/13 06:23:38;;;;;;;1.20;0.77;;;10.90;99.90;;;;;;5075733;28;20465;-82
2023/05/13 06:26:04;;;;;;;1.67;0.90;;;10.90;99.90;;;;;;5075656;28;20555;-82
2023/05/13 06:28:31;;;;;;;3.20;1.30;;;11.00;99.90;;;;;;5075986;28;20440;-83
2023/05/13 06:30:59;;;;;;;1.20;0.90;;;11.00;99.90;;;;;;5075416;28;20775;-80
2023/05/13 06:33:26;;;;;;;1.00;0.90;;;11.10;99.90;;;;;;5075608;28;20478;-80
2023/05/13 06:35:53;;;;;;;2.10;0.90;;;11.20;99.90;;;;;;5075323;28;20914;-81
2023/05/13 06:38:19;;;;;;;0.80;0.80;;;11.20;99.90;;;;;;5075571;28;20446;-81
2023/05/13 06:40:46;;;;;;;1.87;1.00;;;11.20;99.90;;;;;;5075468;28;20454;-81
2023/05/13 06:43:15;;;;;;;0.90;0.90;;;11.20;99.90;;;;;;5075327;28;20466;-80
2023/05/13 06:45:41;;;;;;;3.50;1.00;;;11.30;99.90;;;;;;5075438;28;20493;-81
2023/05/13 06:48:09;;;;;;;1.83;1.00;;;11.30;99.90;;;;;;5075118;28;20798;-81
2023/05/13 06:50:36;;;;;;;1.60;1.10;;;11.30;99.90;;;;;;5075297;28;20450;-81
2023/05/13 06:53:03;;;;;;;1.43;0.70;;;11.30;99.90;;;;;;5075086;28;20481;-81
2023/05/13 06:55:29;;;;;;;1.57;1.00;;;11.30;99.90;;;;;;5075082;28;20967;-81
2023/05/13 06:57:56;;;;;;;1.73;0.97;;;11.30;99.90;;;;;;5075156;28;20456;-81
2023/05/13 07:00:23;;;;;;;2.40;1.07;;;11.30;99.90;;;;;;5075104;28;20450;-80
2023/05/13 07:02:50;;;;;;;2.97;1.37;;;11.30;99.90;;;;;;5074701;28;20493;-80
2023/05/13 07:05:18;;;;;;;0.70;0.67;;;11.30;99.90;;;;;;5074026;28;20493;-80
2023/05/13 07:07:44;;;;;;;1.10;0.90;;;11.30;99.90;;;;;;5074680;28;20460;-81
2023/05/13 07:10:11;;;;;;;4.10;0.90;;;11.30;99.90;;;;;;5074562;28;20835;-80
2023/05/13 07:12:38;;;;;;;1.50;0.90;;;11.40;99.90;;;;;;5074485;28;20552;-81
2023/05/13 07:15:06;;;;;;;1.50;1.40;;;11.50;99.90;;;;;;5074794;28;20867;-81
2023/05/13 07:17:33;;;;;;;1.20;1.10;;;11.50;99.90;;;;;;5074789;28;20450;-81
2023/05/13 07:19:59;;;;;;;1.23;1.00;;;11.50;99.90;;;;;;5074700;28;20452;-81
2023/05/13 07:22:27;;;;;;;1.50;0.60;;;11.60;99.90;;;;;;5074493;28;20469;-80
2023/05/13 07:24:54;;;;;;;1.20;1.10;;;11.60;99.90;;;;;;5074803;28;20876;-81
2023/05/13 07:27:21;;;;;;;1.40;1.10;;;11.60;99.90;;;;;;5074521;28;20441;-80
2023/05/13 07:29:48;;;;;;;1.63;0.93;;;11.70;99.90;;;;;;5074504;28;20985;-81
2023/05/13 07:32:15;;;;;;;5.10;1.13;;;11.80;99.90;;;;;;5074062;28;20507;-81
2023/05/13 07:34:41;;;;;;;3.00;1.50;;;11.90;99.90;;;;;;5074422;28;20448;-81
2023/05/13 07:37:08;;;;;;;1.70;0.90;;;12.00;99.90;;;;;;5074384;28;20449;-81
2023/05/13 07:39:36;;;;;;;2.23;1.50;;;12.20;99.90;;;;;;5074359;28;20451;-81
2023/05/13 07:42:03;;;;;;;2.07;1.40;;;12.30;99.90;;;;;;5074237;28;20445;-81
2023/05/13 07:44:30;;;;;;;2.20;1.73;;;12.30;99.90;;;;;;5074209;28;20479;-81
2023/05/13 07:46:57;;;;;;;1.87;0.90;;;12.40;99.90;;;;;;5074118;28;20492;-81
2023/05/13 07:49:23;;;;;;;1.03;1.00;;;12.50;99.90;;;;;;5074121;28;20457;-81
2023/05/13 07:51:50;;;;;;;2.70;2.00;;;12.60;99.90;;;;;;5074035;28;20453;-81
2023/05/13 07:54:17;;;;;;;1.10;1.00;;;12.70;99.90;;;;;;5074181;28;20477;-81
2023/05/13 07:56:46;;;;;;;1.43;1.00;;;13.00;99.90;;;;;;5073975;28;20450;-81
2023/05/13 07:59:13;;;;;;;2.50;1.30;;;13.20;99.90;;;;;;5073944;28;20453;-81
2023/05/13 08:01:40;;;;;;;4.93;1.53;;;13.30;99.90;;;;;;5073454;28;20485;-81
2023/05/13 08:04:06;;;;;;;2.13;1.03;;;13.40;99.90;;;;;;5073768;28;20474;-81
2023/05/13 08:06:33;;;;;;;1.27;1.07;;;13.30;99.90;;;;;;5073767;28;20493;-81
2023/05/13 08:09:00;;;;;;;1.63;1.07;;;13.30;99.90;;;;;;5073763;28;20463;-82
2023/05/13 08:11:27;;;;;;;4.40;1.77;;;13.20;99.90;;;;;;5073714;28;20453;-81
2023/05/13 08:13:55;;;;;;;1.13;0.80;;;13.30;99.90;;;;;;5073601;28;20470;-80
2023/05/13 08:16:21;;;;;;;2.00;1.30;;;13.30;99.90;;;;;;5073410;28;20448;-81
2023/05/13 08:18:48;;;;;;;1.30;1.20;;;13.30;99.90;;;;;;5073445;28;20653;-81
2023/05/13 08:21:15;;;;;;;3.00;1.40;;;13.30;99.90;;;;;;5073622;28;20461;-81
2023/05/13 08:23:42;;;;;;;2.70;1.50;;;13.30;99.90;;;;;;5073764;28;20469;-81
2023/05/13 08:26:08;;;;;;;1.50;1.40;;;13.20;99.90;;;;;;5073536;28;20477;-85
2023/05/13 08:28:35;;;;;;;1.53;1.43;;;13.20;99.90;;;;;;5073596;28;20452;-84
2023/05/13 08:31:03;;;;;;;1.47;1.23;;;13.30;99.90;;;;;;5073601;28;20454;-81
2023/05/13 08:33:30;;;;;;;2.20;1.53;;;13.30;99.90;;;;;;5073405;28;20473;-80
2023/05/13 08:35:58;;;;;;;2.40;1.83;;;13.30;99.90;;;;;;5073501;28;20437;-79
2023/05/13 08:38:25;;;;;;;1.70;1.60;;;13.20;99.90;;;;;;5073472;28;20449;-79
2023/05/13 08:40:52;;;;;;;2.10;1.57;;;13.20;99.90;;;;;;5073418;28;20496;-79
2023/05/13 08:43:20;;;;;;;1.63;1.07;;;13.10;99.90;;;;;;5073342;28;20469;-80
2023/05/13 08:45:49;;;;;;;1.00;0.80;;;13.10;99.90;;;;;;5073552;28;20503;-79
2023/05/13 08:48:19;;;;;;;1.33;1.23;;;13.00;99.90;;;;;;5073550;28;20507;-79
2023/05/13 08:50:46;;;;;;;3.13;2.20;;;13.00;99.90;;;;;;5073555;28;20449;-79
2023/05/13 08:53:13;;;;;;;1.73;1.23;;;13.10;99.90;;;;;;5073197;28;20515;-79
2023/05/13 08:55:40;;;;;;;1.37;1.27;;;13.00;99.90;;;;;;5073258;28;20491;-79
2023/05/13 08:58:07;;;;;;;1.27;1.00;;;13.10;99.90;;;;;;5073277;28;20865;-79
2023/05/13 09:00:34;;;;;;;1.83;1.73;;;13.10;99.90;;;;;;5073202;28;20456;-79
2023/05/13 09:03:01;;;;;;;1.40;1.30;;;13.10;99.90;;;;;;5072670;28;20492;-79
2023/05/13 09:05:30;;;;;;;4.53;1.60;;;13.10;99.90;;;;;;5073121;28;20484;-79
2023/05/13 09:07:57;;;;;;;1.83;1.67;;;13.10;99.90;;;;;;5072769;28;20512;-79
2023/05/13 09:10:24;;;;;;;1.87;1.43;;;13.10;99.90;;;;;;5073141;28;20503;-80
2023/05/13 09:12:52;;;;;;;1.43;1.33;;;13.10;99.90;;;;;;5072689;28;21032;-80
2023/05/13 09:15:20;;;;;;;1.57;1.13;;;13.00;99.90;;;;;;5073069;28;20441;-79
2023/05/13 09:17:51;;;;;;;2.30;1.60;;;12.90;99.90;;;;;;5073044;28;20527;-79
2023/05/13 09:20:18;;;;;;;0.97;0.87;;;13.00;99.90;;;;;;5073012;28;20441;-80
2023/05/13 09:22:47;;;;;;;1.13;1.13;;;13.00;99.90;;;;;;5072907;28;20522;-79
2023/05/13 09:25:15;;;;;;;2.93;1.13;;;12.90;99.90;;;;;;5072580;28;20449;-80
2023/05/13 09:27:44;;;;;;;1.80;0.90;;;12.90;99.90;;;;;;5074705;28;20536;-79
2023/05/13 09:30:11;;;;;;;0.70;0.70;;;12.80;99.90;;;;;;5076490;28;20498;-79
2023/05/13 09:32:38;;;;;;;1.23;1.00;;;12.70;99.90;;;;;;5076933;28;20469;-80
2023/05/13 09:35:15;;;;;;;2.17;1.20;;;12.70;99.90;;;;;;5076781;28;20469;-80
2023/05/13 09:37:44;;;;;;;1.90;1.40;;;12.70;99.90;;;;;;5076408;28;20532;-81
2023/05/13 09:40:13;;;;;;;0.90;0.60;;;12.70;99.90;;;;;;5076276;28;20965;-81
2023/05/13 09:42:43;;;;;;;1.43;1.33;;;12.70;99.90;;;;;;5076421;28;20469;-81
2023/05/13 09:45:11;;;;;;;1.50;1.33;;;12.70;99.90;;;;;;5076612;28;20448;-81
2023/05/13 09:47:38;;;;;;;2.30;1.50;;;12.60;99.90;;;;;;5076411;28;20441;-81
2023/05/13 09:50:06;;;;;;;1.33;1.23;;;12.60;99.90;;;;;;5076401;28;20457;-81
2023/05/13 09:52:35;;;;;;;1.30;1.07;;;12.60;99.90;;;;;;5076277;28;20476;-81
2023/05/13 09:55:04;;;;;;;1.47;0.90;;;12.60;99.90;;;;;;5076363;28;20445;-81
2023/05/13 09:57:32;;;;;;;2.00;1.13;;;12.50;99.90;;;;;;5076228;28;20532;-80
2023/05/13 10:00:00;;;;;;;2.63;1.20;;;12.50;99.90;;;;;;5076061;28;20454;-81
2023/05/13 10:02:27;;;;;;;1.33;1.13;;;12.50;99.90;;;;;;5075736;28;20484;-81
2023/05/13 10:04:55;;;;;;;1.03;0.97;;;12.50;99.90;;;;;;5075834;28;20503;-81
2023/05/13 10:07:24;;;;;;;1.40;1.20;;;12.50;99.90;;;;;;5075600;28;21008;-81
2023/05/13 10:09:53;;;;;;;2.17;0.90;;;12.40;99.90;;;;;;5076797;28;20453;-81
2023/05/13 10:12:21;;;;;;;2.13;0.93;;;12.50;99.90;;;;;;5075600;28;20948;-81
2023/05/13 10:14:51;;;;;;;1.43;0.93;;;12.60;99.90;;;;;;5075943;28;20453;-81
2023/05/13 10:17:20;;;;;;;1.17;1.10;;;12.70;99.90;;;;;;5075720;28;20411;-80
2023/05/13 10:19:49;;;;;;;1.03;0.97;;;12.90;99.90;;;;;;5075656;28;20918;-81
2023/05/13 10:22:21;;;;;;;0.90;0.77;;;13.00;99.90;;;;;;5075546;28;20434;-81
2023/05/13 10:24:48;;;;;;;1.10;0.90;;;13.10;99.90;;;;;;5075846;28;20433;-80
2023/05/13 10:27:15;;;;;;;3.77;1.17;;;13.20;99.90;;;;;;5075722;28;20489;-80
2023/05/13 10:29:44;;;;;;;1.60;1.00;;;13.10;99.90;;;;;;5075419;28;20503;-80
2023/05/13 10:32:13;;;;;;;0.90;0.80;;;13.10;99.90;;;;;;5075625;28;20465;-80
2023/05/13 10:34:41;;;;;;;0.90;0.90;;;13.10;99.90;;;;;;5076332;28;20449;-80
2023/05/13 10:37:24;;;;;;;2.70;1.40;;;13.00;99.90;;;;;;5075643;28;20445;-81
2023/05/13 10:40:25;;;;;;;1.20;1.10;;;12.90;99.90;;;;;;5075435;28;20506;-80
2023/05/13 10:43:00;;;;;;;1.20;1.10;;;12.90;99.90;;;;;;5075228;28;20469;-79
2023/05/13 10:45:27;;;;;;;1.47;1.00;;;12.90;99.90;;;;;;5075483;28;20461;-80
2023/05/13 10:47:56;;;;;;;0.70;0.70;;;13.00;99.90;;;;;;5075335;28;20485;-80
2023/05/13 10:50:24;;;;;;;0.90;0.80;;;13.20;99.90;;;;;;5075395;28;20441;-80
2023/05/13 10:52:51;;;;;;;0.80;0.80;;;13.40;99.90;;;;;;5074922;28;20465;-80
2023/05/13 10:55:20;;;;;;;0.97;0.80;;;13.60;99.90;;;;;;5075256;28;20544;-80
2023/05/13 10:58:10;;;;;;;2.20;1.27;;;13.80;99.90;;;;;;5075192;28;20452;-80
2023/05/13 11:00:38;;;;;;;5.97;0.80;;;13.70;99.90;;;;;;5075221;28;20485;-80
2023/05/13 11:03:27;;;;;;;1.13;1.00;;;13.70;99.90;;;;;;5074661;28;20485;-81
2023/05/13 11:06:03;;;;;;;1.70;1.03;;;13.60;99.90;;;;;;5074993;28;20517;-80
2023/05/13 11:08:39;;;;;;;1.30;1.20;;;13.60;99.90;;;;;;5074985;28;20441;-80
2023/05/13 11:11:29;;;;;;;0.93;0.80;;;13.50;99.90;;;;;;5075696;28;20786;-80
2023/05/13 11:14:02;;;;;;;1.13;0.90;;;13.40;99.90;;;;;;5074646;28;20880;-80
2023/05/13 11:16:29;;;;;;;1.30;0.90;;;13.30;99.90;;;;;;5074559;28;20898;-80
2023/05/13 11:19:00;;;;;;;1.40;1.30;;;13.40;99.90;;;;;;5074739;28;20449;-80
2023/05/13 11:21:32;;;;;;;0.70;0.70;;;13.40;99.90;;;;;;5074792;28;20425;-79
2023/05/13 11:24:02;;;;;;;1.00;0.83;;;13.40;99.90;;;;;;5074843;28;20458;-80
2023/05/13 11:26:44;;;;;;;0.70;0.63;;;13.30;99.90;;;;;;5074238;28;20469;-80
2023/05/13 11:29:11;;;;;;;1.23;0.77;;;13.40;99.90;;;;;;5074453;28;20971;-81
2023/05/13 11:31:48;;;;;;;0.73;0.73;;;13.40;99.90;;;;;;5074661;28;20446;-80
2023/05/13 11:34:17;;;;;;;1.53;1.43;;;13.40;99.90;;;;;;5074389;28;20811;-81
2023/05/13 11:36:46;;;;;;;0.90;0.90;;;13.60;99.90;;;;;;5074425;28;20445;-80
2023/05/13 11:39:15;;;;;;;0.80;0.80;;;13.50;99.90;;;;;;5074380;28;20892;-80
2023/05/13 11:41:44;;;;;;;2.60;1.50;;;13.50;99.90;;;;;;5074290;28;20460;-80
2023/05/13 11:44:12;;;;;;;0.93;0.73;;;13.50;99.90;;;;;;5074448;28;20515;-79
2023/05/13 11:46:49;;;;;;;1.20;1.10;;;13.40;99.90;;;;;;5074042;28;20485;-79
2023/05/13 11:49:31;;;;;;;1.30;1.17;;;13.40;99.90;;;;;;5073980;28;20437;-80
2023/05/13 11:51:59;;;;;;;2.60;1.57;;;13.30;99.90;;;;;;5074249;28;20479;-78
2023/05/13 11:54:25;;;;;;;1.30;0.73;;;13.40;99.90;;;;;;5074255;28;20536;-78
2023/05/13 11:56:52;;;;;;;1.37;1.27;;;13.20;99.90;;;;;;5073770;28;20445;-78
2023/05/13 11:59:19;;;;;;;1.63;1.30;;;13.20;99.90;;;;;;5073986;28;20845;-79
2023/05/13 12:01:46;;;;;;;1.17;1.07;;;13.20;99.90;;;;;;5074011;28;20508;-79
2023/05/13 12:04:12;;;;;;;1.23;0.90;;;13.10;99.90;;;;;;5073601;28;20497;-79
2023/05/13 12:06:47;;;;;;;3.17;1.00;;;13.00;99.90;;;;;;5073771;28;20481;-79
2023/05/13 12:09:13;;;;;;;5.73;1.70;;;13.00;99.90;;;;;;5073728;28;20884;-79
2023/05/13 12:11:41;;;;;;;1.23;1.13;;;13.00;99.90;;;;;;5073805;28;20453;-79
2023/05/13 12:14:08;;;;;;;1.20;1.10;;;13.00;99.90;;;;;;5073416;28;20474;-79
2023/05/13 12:16:35;;;;;;;1.50;1.40;;;13.00;99.90;;;;;;5073773;28;20453;-79
2023/05/13 12:19:05;;;;;;;1.10;1.00;;;13.00;99.90;;;;;;5073730;28;20441;-79
2023/05/13 12:21:33;;;;;;;1.10;1.10;;;13.00;99.90;;;;;;5073919;28;20481;-79
2023/05/13 12:24:01;;;;;;;1.40;1.10;;;13.00;99.90;;;;;;5074292;28;20477;-79
2023/05/13 12:26:28;;;;;;;1.47;1.37;;;13.00;99.90;;;;;;5073557;28;20488;-79
2023/05/13 12:28:59;;;;;;;4.23;1.47;;;13.10;99.90;;;;;;5073587;28;20503;-79
2023/05/13 12:31:26;;;;;;;1.37;1.07;;;13.20;99.90;;;;;;5073557;28;20449;-79
2023/05/13 12:33:52;;;;;;;3.53;1.10;;;13.40;99.90;;;;;;5073494;28;20469;-79
2023/05/13 12:36:24;;;;;;;1.73;1.17;;;13.60;99.90;;;;;;5073499;28;20453;-79
2023/05/13 12:38:55;;;;;;;1.53;1.27;;;13.70;99.90;;;;;;5074367;28;20447;-78
2023/05/13 12:41:24;;;;;;;2.47;2.00;;;13.70;99.90;;;;;;5073165;28;20942;-78
2023/05/13 12:43:55;;;;;;;1.27;1.17;;;13.70;99.90;;;;;;5073501;28;20821;-78
2023/05/13 12:46:21;;;;;;;1.00;0.90;;;13.70;99.90;;;;;;5073290;28;20941;-78
2023/05/13 12:48:48;;;;;;;2.87;0.90;;;13.70;99.90;;;;;;5073464;28;20460;-79
2023/05/13 12:51:15;;;;;;;2.00;0.90;;;13.70;99.90;;;;;;5073357;28;20445;-78
2023/05/13 12:53:42;;;;;;;2.57;0.93;;;13.60;99.90;;;;;;5073170;28;20480;-78